sensor_id;sensor_type;location;lat;lon;timestamp;pressure;altitude;pressure_sealevel;temperature;humidity
28027;BME280;15344;52.342;-1.290;2023-04-15T00:01:18;99632.15;;;11.11;96.48
28027;BME280;15344;52.342;-1.290;2023-04-15T00:03:43;99637.61;;;11.24;96.06
28027;BME280;15344;52.342;-1.290;2023-04-15T00:06:09;99635.31;;;12.15;90.82
28027;BME280;15344;52.342;-1.290;2023-04-15T00:08:34;99639.83;;;11.46;93.84
28027;BME280;15344;52.342;-1.290;2023-04-15T00:11:00;99640.81;;;10.16;98.05
28027;BME280;15344;52.342;-1.290;2023-04-15T00:13:25;99649.83;;;9.63;100.00
28027;BME280;15344;52.342;-1.290;2023-04-15T00:15:50;99652.20;;;10.01;100.00
28027;BME280;15344;52.342;-1.290;2023-04-15T00:18:15;99650.85;;;10.36;99.40
28027;BME280;15344;52.342;-1.290;2023-04-15T00:20:40;99660.94;;;10.47;99.86
28027;BME280;15344;52.342;-1.290;2023-04-15T00:23:07;99657.41;;;10.65;98.50
28027;BME280;15344;52.342;-1.290;2023-04-15T00:25:31;99664.98;;;9.34;100.00
28027;BME280;15344;52.342;-1.290;2023-04-15T00:27:57;99665.47;;;8.75;100.00
28027;BME280;15344;52.342;-1.290;2023-04-15T00:30:22;99665.33;;;10.49;100.00
28027;BME280;15344;52.342;-1.290;2023-04-15T00:32:48;99659.09;;;11.15;97.31
28027;BME280;15344;52.342;-1.290;2023-04-15T00:35:13;99666.57;;;10.28;100.00
28027;BME280;15344;52.342;-1.290;2023-04-15T00:37:38;99666.37;;;10.44;99.35
28027;BME280;15344;52.342;-1.290;2023-04-15T00:40:05;99673.80;;;9.90;100.00
28027;BME280;15344;52.342;-1.290;2023-04-15T00:42:29;99672.07;;;10.88;97.48
28027;BME280;15344;52.342;-1.290;2023-04-15T00:44:55;99677.84;;;11.35;94.34
28027;BME280;15344;52.342;-1.290;2023-04-15T00:47:21;99680.21;;;11.16;94.39
28027;BME280;15344;52.342;-1.290;2023-04-15T00:49:46;99685.53;;;9.95;99.17
28027;BME280;15344;52.342;-1.290;2023-04-15T00:52:12;99690.13;;;9.92;100.00
28027;BME280;15344;52.342;-1.290;2023-04-15T00:54:37;99694.95;;;10.46;99.66
28027;BME280;15344;52.342;-1.290;2023-04-15T00:57:04;99697.95;;;10.47;96.17
28027;BME280;15344;52.342;-1.290;2023-04-15T00:59:29;99703.23;;;9.34;100.00
28027;BME280;15344;52.342;-1.290;2023-04-15T01:01:54;99707.42;;;9.52;100.00
28027;BME280;15344;52.342;-1.290;2023-04-15T01:04:19;99710.44;;;10.28;100.00
28027;BME280;15344;52.342;-1.290;2023-04-15T01:06:45;99717.45;;;9.82;100.00
28027;BME280;15344;52.342;-1.290;2023-04-15T01:09:10;99721.47;;;9.85;100.00
28027;BME280;15344;52.342;-1.290;2023-04-15T01:11:35;99724.25;;;8.93;100.00
28027;BME280;15344;52.342;-1.290;2023-04-15T01:14:01;99730.21;;;9.12;100.00
28027;BME280;15344;52.342;-1.290;2023-04-15T01:16:26;99734.18;;;9.23;100.00
28027;BME280;15344;52.342;-1.290;2023-04-15T01:18:53;99742.08;;;9.30;100.00
28027;BME280;15344;52.342;-1.290;2023-04-15T01:21:18;99746.36;;;9.39;100.00
28027;BME280;15344;52.342;-1.290;2023-04-15T01:23:44;99748.64;;;8.67;100.00
28027;BME280;15344;52.342;-1.290;2023-04-15T01:26:09;99752.89;;;9.52;100.00
28027;BME280;15344;52.342;-1.290;2023-04-15T01:28:33;99755.84;;;8.37;100.00
28027;BME280;15344;52.342;-1.290;2023-04-15T01:31:04;99756.49;;;9.72;100.00
28027;BME280;15344;52.342;-1.290;2023-04-15T01:33:25;99760.86;;;8.14;100.00
28027;BME280;15344;52.342;-1.290;2023-04-15T01:35:50;99760.64;;;9.07;100.00
28027;BME280;15344;52.342;-1.290;2023-04-15T01:38:16;99763.27;;;9.04;100.00
28027;BME280;15344;52.342;-1.290;2023-04-15T01:40:41;99766.62;;;8.63;100.00
28027;BME280;15344;52.342;-1.290;2023-04-15T01:43:07;99771.66;;;9.61;100.00
28027;BME280;15344;52.342;-1.290;2023-04-15T01:45:33;99774.87;;;8.69;100.00
28027;BME280;15344;52.342;-1.290;2023-04-15T01:47:58;99778.43;;;10.11;100.00
28027;BME280;15344;52.342;-1.290;2023-04-15T01:50:24;99780.87;;;9.95;100.00
28027;BME280;15344;52.342;-1.290;2023-04-15T01:52:49;99784.59;;;9.59;100.00
28027;BME280;15344;52.342;-1.290;2023-04-15T01:55:14;99790.14;;;10.74;98.58
28027;BME280;15344;52.342;-1.290;2023-04-15T01:57:40;99789.21;;;9.31;100.00
28027;BME280;15344;52.342;-1.290;2023-04-15T02:00:07;99793.07;;;9.55;100.00
28027;BME280;15344;52.342;-1.290;2023-04-15T02:02:31;99798.69;;;9.99;100.00
28027;BME280;15344;52.342;-1.290;2023-04-15T02:04:56;99800.84;;;9.49;100.00
28027;BME280;15344;52.342;-1.290;2023-04-15T02:07:22;99800.98;;;9.72;100.00
28027;BME280;15344;52.342;-1.290;2023-04-15T02:09:47;99801.26;;;9.60;100.00
28027;BME280;15344;52.342;-1.290;2023-04-15T02:12:13;99806.57;;;8.47;100.00
28027;BME280;15344;52.342;-1.290;2023-04-15T02:14:38;99806.36;;;9.23;100.00
28027;BME280;15344;52.342;-1.290;2023-04-15T02:17:03;99808.04;;;9.73;100.00
28027;BME280;15344;52.342;-1.290;2023-04-15T02:19:29;99807.66;;;9.31;100.00
28027;BME280;15344;52.342;-1.290;2023-04-15T02:21:54;99813.17;;;9.24;100.00
28027;BME280;15344;52.342;-1.290;2023-04-15T02:24:20;99817.05;;;9.29;100.00
28027;BME280;15344;52.342;-1.290;2023-04-15T02:26:46;99814.59;;;9.57;100.00
28027;BME280;15344;52.342;-1.290;2023-04-15T02:29:11;99812.31;;;8.96;100.00
28027;BME280;15344;52.342;-1.290;2023-04-15T02:31:37;99816.89;;;7.94;100.00
28027;BME280;15344;52.342;-1.290;2023-04-15T02:34:02;99815.04;;;7.85;100.00
28027;BME280;15344;52.342;-1.290;2023-04-15T02:36:28;99822.73;;;8.03;100.00
28027;BME280;15344;52.342;-1.290;2023-04-15T02:38:53;99826.65;;;9.59;100.00
28027;BME280;15344;52.342;-1.290;2023-04-15T02:41:19;99831.09;;;8.42;100.00
28027;BME280;15344;52.342;-1.290;2023-04-15T02:43:45;99838.31;;;8.63;100.00
28027;BME280;15344;52.342;-1.290;2023-04-15T02:46:10;99839.82;;;7.94;100.00
28027;BME280;15344;52.342;-1.290;2023-04-15T02:48:36;99842.28;;;8.23;100.00
28027;BME280;15344;52.342;-1.290;2023-04-15T02:53:27;99843.82;;;8.93;100.00
28027;BME280;15344;52.342;-1.290;2023-04-15T02:55:53;99853.68;;;8.45;100.00
28027;BME280;15344;52.342;-1.290;2023-04-15T02:58:19;99852.38;;;9.74;100.00
28027;BME280;15344;52.342;-1.290;2023-04-15T03:00:43;99856.59;;;10.17;100.00
28027;BME280;15344;52.342;-1.290;2023-04-15T03:03:09;99861.06;;;9.12;100.00
28027;BME280;15344;52.342;-1.290;2023-04-15T03:05:35;99866.31;;;9.15;100.00
28027;BME280;15344;52.342;-1.290;2023-04-15T03:08:00;99867.74;;;9.95;100.00
28027;BME280;15344;52.342;-1.290;2023-04-15T03:10:26;99873.63;;;9.43;100.00
28027;BME280;15344;52.342;-1.290;2023-04-15T03:12:51;99878.97;;;9.35;100.00
28027;BME280;15344;52.342;-1.290;2023-04-15T03:15:16;99880.99;;;8.32;100.00
28027;BME280;15344;52.342;-1.290;2023-04-15T03:17:42;99885.25;;;8.44;100.00
28027;BME280;15344;52.342;-1.290;2023-04-15T03:20:08;99890.45;;;9.30;100.00
28027;BME280;15344;52.342;-1.290;2023-04-15T03:22:33;99887.64;;;9.20;100.00
28027;BME280;15344;52.342;-1.290;2023-04-15T03:24:58;99894.21;;;8.97;100.00
28027;BME280;15344;52.342;-1.290;2023-04-15T03:27:24;99898.24;;;8.91;100.00
28027;BME280;15344;52.342;-1.290;2023-04-15T03:29:49;99904.17;;;9.94;100.00
28027;BME280;15344;52.342;-1.290;2023-04-15T03:32:14;99906.92;;;10.53;100.00
28027;BME280;15344;52.342;-1.290;2023-04-15T03:34:39;99916.54;;;8.42;100.00
28027;BME280;15344;52.342;-1.290;2023-04-15T03:37:04;99918.96;;;8.39;100.00
28027;BME280;15344;52.342;-1.290;2023-04-15T03:39:30;99919.02;;;9.35;100.00
28027;BME280;15344;52.342;-1.290;2023-04-15T03:41:55;99918.98;;;8.66;100.00
28027;BME280;15344;52.342;-1.290;2023-04-15T03:44:21;99916.34;;;8.82;100.00
28027;BME280;15344;52.342;-1.290;2023-04-15T03:46:46;99916.89;;;9.63;100.00
28027;BME280;15344;52.342;-1.290;2023-04-15T03:49:13;99919.41;;;9.57;100.00
28027;BME280;15344;52.342;-1.290;2023-04-15T03:51:37;99922.83;;;9.84;100.00
28027;BME280;15344;52.342;-1.290;2023-04-15T03:54:02;99929.23;;;8.94;100.00
28027;BME280;15344;52.342;-1.290;2023-04-15T03:56:28;99935.31;;;8.66;100.00
28027;BME280;15344;52.342;-1.290;2023-04-15T03:58:53;99939.21;;;8.83;100.00
28027;BME280;15344;52.342;-1.290;2023-04-15T04:01:19;99942.91;;;8.59;100.00
28027;BME280;15344;52.342;-1.290;2023-04-15T04:03:44;99945.21;;;9.89;100.00
28027;BME280;15344;52.342;-1.290;2023-04-15T04:06:09;99950.80;;;9.32;100.00
28027;BME280;15344;52.342;-1.290;2023-04-15T04:08:35;99957.24;;;9.50;100.00
28027;BME280;15344;52.342;-1.290;2023-04-15T04:11:00;99954.00;;;8.98;100.00
28027;BME280;15344;52.342;-1.290;2023-04-15T04:13:25;99954.97;;;8.92;100.00
28027;BME280;15344;52.342;-1.290;2023-04-15T04:15:51;99955.70;;;8.89;100.00
28027;BME280;15344;52.342;-1.290;2023-04-15T04:18:17;99963.81;;;9.51;100.00
28027;BME280;15344;52.342;-1.290;2023-04-15T04:20:42;99964.90;;;9.24;100.00
28027;BME280;15344;52.342;-1.290;2023-04-15T04:23:08;99972.71;;;8.68;100.00
28027;BME280;15344;52.342;-1.290;2023-04-15T04:25:34;99977.11;;;8.69;100.00
28027;BME280;15344;52.342;-1.290;2023-04-15T04:27:59;99982.80;;;9.65;100.00
28027;BME280;15344;52.342;-1.290;2023-04-15T04:30:24;99986.90;;;9.52;100.00
28027;BME280;15344;52.342;-1.290;2023-04-15T04:32:50;99989.48;;;9.09;100.00
28027;BME280;15344;52.342;-1.290;2023-04-15T04:35:16;99994.02;;;8.05;100.00
28027;BME280;15344;52.342;-1.290;2023-04-15T04:37:41;99999.24;;;7.76;100.00
28027;BME280;15344;52.342;-1.290;2023-04-15T04:40:07;99996.88;;;9.23;100.00
28027;BME280;15344;52.342;-1.290;2023-04-15T04:42:32;100000.76;;;10.33;100.00
28027;BME280;15344;52.342;-1.290;2023-04-15T04:44:57;100004.26;;;10.45;100.00
28027;BME280;15344;52.342;-1.290;2023-04-15T04:47:23;100015.18;;;9.45;100.00
28027;BME280;15344;52.342;-1.290;2023-04-15T04:49:50;100022.72;;;9.64;100.00
28027;BME280;15344;52.342;-1.290;2023-04-15T04:52:14;100029.75;;;10.23;100.00
28027;BME280;15344;52.342;-1.290;2023-04-15T04:54:40;100030.30;;;10.56;100.00
28027;BME280;15344;52.342;-1.290;2023-04-15T04:57:06;100033.88;;;9.82;100.00
28027;BME280;15344;52.342;-1.290;2023-04-15T04:59:31;100035.55;;;9.90;100.00
28027;BME280;15344;52.342;-1.290;2023-04-15T05:01:57;100042.44;;;9.63;100.00
28027;BME280;15344;52.342;-1.290;2023-04-15T05:04:23;100047.29;;;10.42;100.00
28027;BME280;15344;52.342;-1.290;2023-04-15T05:06:48;100052.90;;;10.13;100.00
28027;BME280;15344;52.342;-1.290;2023-04-15T05:09:13;100062.15;;;8.79;100.00
28027;BME280;15344;52.342;-1.290;2023-04-15T05:11:38;100069.98;;;10.04;100.00
28027;BME280;15344;52.342;-1.290;2023-04-15T05:14:04;100078.32;;;9.22;100.00
28027;BME280;15344;52.342;-1.290;2023-04-15T05:16:29;100085.99;;;9.27;100.00
28027;BME280;15344;52.342;-1.290;2023-04-15T05:18:56;100086.53;;;9.48;100.00
28027;BME280;15344;52.342;-1.290;2023-04-15T05:21:21;100090.91;;;9.07;100.00
28027;BME280;15344;52.342;-1.290;2023-04-15T05:23:46;100092.37;;;9.39;100.00
28027;BME280;15344;52.342;-1.290;2023-04-15T05:26:11;100096.11;;;10.33;100.00
28027;BME280;15344;52.342;-1.290;2023-04-15T05:28:36;100094.96;;;10.25;100.00
28027;BME280;15344;52.342;-1.290;2023-04-15T05:31:02;100099.93;;;9.10;100.00
28027;BME280;15344;52.342;-1.290;2023-04-15T05:33:27;100106.41;;;9.29;100.00
28027;BME280;15344;52.342;-1.290;2023-04-15T05:35:53;100119.18;;;8.38;100.00
28027;BME280;15344;52.342;-1.290;2023-04-15T05:38:18;100124.25;;;8.61;100.00
28027;BME280;15344;52.342;-1.290;2023-04-15T05:40:43;100129.12;;;8.73;100.00
28027;BME280;15344;52.342;-1.290;2023-04-15T05:43:09;100130.72;;;9.69;100.00
28027;BME280;15344;52.342;-1.290;2023-04-15T05:45:35;100132.72;;;9.85;100.00
28027;BME280;15344;52.342;-1.290;2023-04-15T05:48:00;100136.34;;;11.03;97.23
28027;BME280;15344;52.342;-1.290;2023-04-15T05:50:26;100145.10;;;10.44;98.24
28027;BME280;15344;52.342;-1.290;2023-04-15T05:52:51;100144.38;;;10.48;98.94
28027;BME280;15344;52.342;-1.290;2023-04-15T05:55:17;100148.36;;;10.02;100.00
28027;BME280;15344;52.342;-1.290;2023-04-15T05:57:42;100156.10;;;10.75;97.52
28027;BME280;15344;52.342;-1.290;2023-04-15T06:00:08;100161.00;;;10.41;99.56
28027;BME280;15344;52.342;-1.290;2023-04-15T06:02:33;100168.07;;;9.40;100.00
28027;BME280;15344;52.342;-1.290;2023-04-15T06:04:58;100171.26;;;9.48;100.00
28027;BME280;15344;52.342;-1.290;2023-04-15T06:07:24;100174.68;;;11.08;96.65
28027;BME280;15344;52.342;-1.290;2023-04-15T06:09:50;100181.35;;;10.42;98.46
28027;BME280;15344;52.342;-1.290;2023-04-15T06:12:14;100179.61;;;10.60;99.18
28027;BME280;15344;52.342;-1.290;2023-04-15T06:14:40;100180.91;;;11.27;95.00
28027;BME280;15344;52.342;-1.290;2023-04-15T06:17:06;100179.38;;;10.12;98.34
28027;BME280;15344;52.342;-1.290;2023-04-15T06:19:31;100188.20;;;10.69;98.38
28027;BME280;15344;52.342;-1.290;2023-04-15T06:21:57;100195.67;;;10.12;100.00
28027;BME280;15344;52.342;-1.290;2023-04-15T06:24:21;100205.50;;;11.20;94.00
28027;BME280;15344;52.342;-1.290;2023-04-15T06:26:47;100208.54;;;11.17;94.80
28027;BME280;15344;52.342;-1.290;2023-04-15T06:29:12;100214.00;;;10.87;96.55
28027;BME280;15344;52.342;-1.290;2023-04-15T06:31:38;100219.78;;;11.24;94.14
28027;BME280;15344;52.342;-1.290;2023-04-15T06:34:02;100230.06;;;9.27;100.00
28027;BME280;15344;52.342;-1.290;2023-04-15T06:36:29;100230.38;;;10.34;99.74
28027;BME280;15344;52.342;-1.290;2023-04-15T06:38:53;100234.74;;;10.35;99.45
28027;BME280;15344;52.342;-1.290;2023-04-15T06:41:19;100242.84;;;10.92;95.66
28027;BME280;15344;52.342;-1.290;2023-04-15T06:43:44;100248.88;;;11.82;93.10
28027;BME280;15344;52.342;-1.290;2023-04-15T06:46:09;100255.98;;;11.67;93.59
28027;BME280;15344;52.342;-1.290;2023-04-15T06:48:34;100260.49;;;11.87;92.42
28027;BME280;15344;52.342;-1.290;2023-04-15T06:51:00;100262.27;;;12.28;90.93
28027;BME280;15344;52.342;-1.290;2023-04-15T06:53:25;100264.92;;;12.17;88.29
28027;BME280;15344;52.342;-1.290;2023-04-15T06:55:51;100269.80;;;11.36;93.22
28027;BME280;15344;52.342;-1.290;2023-04-15T06:58:16;100267.54;;;11.26;93.85
28027;BME280;15344;52.342;-1.290;2023-04-15T07:00:41;100268.19;;;10.87;97.37
28027;BME280;15344;52.342;-1.290;2023-04-15T07:03:07;100273.33;;;10.56;97.73
28027;BME280;15344;52.342;-1.290;2023-04-15T07:05:32;100278.89;;;10.93;97.27
28027;BME280;15344;52.342;-1.290;2023-04-15T07:07:58;100287.49;;;11.00;97.97
28027;BME280;15344;52.342;-1.290;2023-04-15T07:10:23;100297.71;;;11.80;95.53
28027;BME280;15344;52.342;-1.290;2023-04-15T07:12:49;100301.45;;;10.01;98.92
28027;BME280;15344;52.342;-1.290;2023-04-15T07:15:14;100307.71;;;10.48;99.54
28027;BME280;15344;52.342;-1.290;2023-04-15T07:17:40;100309.62;;;11.88;94.67
28027;BME280;15344;52.342;-1.290;2023-04-15T07:20:05;100305.94;;;11.88;95.22
28027;BME280;15344;52.342;-1.290;2023-04-15T07:22:30;100311.43;;;11.00;98.68
28027;BME280;15344;52.342;-1.290;2023-04-15T07:24:56;100321.45;;;11.08;99.19
28027;BME280;15344;52.342;-1.290;2023-04-15T07:27:21;100328.72;;;10.54;100.00
28027;BME280;15344;52.342;-1.290;2023-04-15T07:29:47;100328.56;;;11.67;98.57
28027;BME280;15344;52.342;-1.290;2023-04-15T07:32:12;100335.55;;;11.13;98.77
28027;BME280;15344;52.342;-1.290;2023-04-15T07:34:37;100335.23;;;10.79;99.18
28027;BME280;15344;52.342;-1.290;2023-04-15T07:37:03;100343.34;;;11.89;95.93
28027;BME280;15344;52.342;-1.290;2023-04-15T07:39:28;100345.95;;;11.82;95.05
28027;BME280;15344;52.342;-1.290;2023-04-15T07:41:54;100350.51;;;11.82;93.96
28027;BME280;15344;52.342;-1.290;2023-04-15T07:44:19;100347.42;;;11.95;91.36
28027;BME280;15344;52.342;-1.290;2023-04-15T07:46:45;100347.78;;;12.45;92.50
28027;BME280;15344;52.342;-1.290;2023-04-15T07:49:10;100356.33;;;11.39;96.15
28027;BME280;15344;52.342;-1.290;2023-04-15T07:51:36;100362.07;;;11.23;96.55
28027;BME280;15344;52.342;-1.290;2023-04-15T07:54:01;100368.26;;;11.54;98.17
28027;BME280;15344;52.342;-1.290;2023-04-15T07:56:27;100370.32;;;12.15;96.97
28027;BME280;15344;52.342;-1.290;2023-04-15T07:58:52;100373.32;;;12.44;95.33
28027;BME280;15344;52.342;-1.290;2023-04-15T08:01:17;100375.67;;;13.30;91.02
28027;BME280;15344;52.342;-1.290;2023-04-15T08:03:42;100381.62;;;13.41;86.99
28027;BME280;15344;52.342;-1.290;2023-04-15T08:06:08;100389.20;;;13.47;87.51
28027;BME280;15344;52.342;-1.290;2023-04-15T08:08:33;100396.24;;;13.42;83.59
28027;BME280;15344;52.342;-1.290;2023-04-15T08:10:59;100401.44;;;14.27;79.96
28027;BME280;15344;52.342;-1.290;2023-04-15T08:13:25;100402.08;;;13.01;82.65
28027;BME280;15344;52.342;-1.290;2023-04-15T08:18:15;100414.37;;;13.09;82.02
28027;BME280;15344;52.342;-1.290;2023-04-15T08:20:41;100419.15;;;12.67;82.56
28027;BME280;15344;52.342;-1.290;2023-04-15T08:23:06;100427.60;;;10.84;90.23
28027;BME280;15344;52.342;-1.290;2023-04-15T08:25:32;100427.23;;;12.79;86.74
28027;BME280;15344;52.342;-1.290;2023-04-15T08:27:57;100436.91;;;11.91;90.16
28027;BME280;15344;52.342;-1.290;2023-04-15T08:30:23;100438.52;;;11.76;89.82
28027;BME280;15344;52.342;-1.290;2023-04-15T08:32:50;100438.95;;;12.68;87.64
28027;BME280;15344;52.342;-1.290;2023-04-15T08:35:14;100434.23;;;13.21;85.14
28027;BME280;15344;52.342;-1.290;2023-04-15T08:37:39;100439.12;;;12.60;88.51
28027;BME280;15344;52.342;-1.290;2023-04-15T08:40:05;100443.21;;;12.83;89.97
28027;BME280;15344;52.342;-1.290;2023-04-15T08:42:33;100447.52;;;12.07;89.58
28027;BME280;15344;52.342;-1.290;2023-04-15T08:44:54;100453.08;;;12.64;90.56
28027;BME280;15344;52.342;-1.290;2023-04-15T08:47:20;100454.00;;;11.84;94.78
28027;BME280;15344;52.342;-1.290;2023-04-15T08:49:46;100455.85;;;13.20;88.29
28027;BME280;15344;52.342;-1.290;2023-04-15T08:52:10;100461.14;;;12.70;89.80
28027;BME280;15344;52.342;-1.290;2023-04-15T08:54:36;100463.73;;;12.15;92.92
28027;BME280;15344;52.342;-1.290;2023-04-15T08:57:01;100472.17;;;10.47;100.00
28027;BME280;15344;52.342;-1.290;2023-04-15T08:59:26;100473.77;;;12.31;95.39
28027;BME280;15344;52.342;-1.290;2023-04-15T09:01:52;100486.95;;;11.36;96.19
28027;BME280;15344;52.342;-1.290;2023-04-15T09:04:17;100491.80;;;11.40;95.33
28027;BME280;15344;52.342;-1.290;2023-04-15T09:06:42;100497.21;;;11.54;96.62
28027;BME280;15344;52.342;-1.290;2023-04-15T09:09:08;100498.49;;;11.89;97.63
28027;BME280;15344;52.342;-1.290;2023-04-15T09:11:34;100501.80;;;11.30;99.26
28027;BME280;15344;52.342;-1.290;2023-04-15T09:13:58;100506.82;;;11.27;94.40
28027;BME280;15344;52.342;-1.290;2023-04-15T09:16:23;100505.74;;;11.57;97.87
28027;BME280;15344;52.342;-1.290;2023-04-15T09:18:50;100511.25;;;12.17;94.13
28027;BME280;15344;52.342;-1.290;2023-04-15T09:21:15;100512.82;;;12.55;92.23
28027;BME280;15344;52.342;-1.290;2023-04-15T09:23:43;100514.39;;;11.83;94.28
28027;BME280;15344;52.342;-1.290;2023-04-15T09:26:05;100519.94;;;13.28;88.80
28027;BME280;15344;52.342;-1.290;2023-04-15T09:28:30;100523.71;;;12.41;90.73
28027;BME280;15344;52.342;-1.290;2023-04-15T09:30:56;100526.13;;;13.29;88.98
28027;BME280;15344;52.342;-1.290;2023-04-15T09:33:21;100529.82;;;12.52;90.15
28027;BME280;15344;52.342;-1.290;2023-04-15T09:38:12;100536.32;;;12.94;89.67
28027;BME280;15344;52.342;-1.290;2023-04-15T09:40:39;100536.64;;;13.73;84.81
28027;BME280;15344;52.342;-1.290;2023-04-15T09:43:04;100540.52;;;14.76;80.13
28027;BME280;15344;52.342;-1.290;2023-04-15T09:45:28;100542.76;;;13.73;83.63
28027;BME280;15344;52.342;-1.290;2023-04-15T09:47:53;100548.03;;;13.29;86.33
28027;BME280;15344;52.342;-1.290;2023-04-15T09:50:19;100544.06;;;14.07;86.42
28027;BME280;15344;52.342;-1.290;2023-04-15T09:52:43;100550.27;;;14.44;83.45
28027;BME280;15344;52.342;-1.290;2023-04-15T09:55:09;100549.06;;;13.99;85.29
28027;BME280;15344;52.342;-1.290;2023-04-15T09:57:35;100551.49;;;13.51;87.88
28027;BME280;15344;52.342;-1.290;2023-04-15T10:00:00;100556.48;;;14.36;82.66
28027;BME280;15344;52.342;-1.290;2023-04-15T10:02:26;100559.01;;;15.04;81.95
28027;BME280;15344;52.342;-1.290;2023-04-15T10:04:51;100560.33;;;14.71;82.23
28027;BME280;15344;52.342;-1.290;2023-04-15T10:07:16;100561.74;;;14.56;83.60
28027;BME280;15344;52.342;-1.290;2023-04-15T10:09:41;100565.21;;;14.50;83.18
28027;BME280;15344;52.342;-1.290;2023-04-15T10:12:06;100559.84;;;16.12;77.94
28027;BME280;15344;52.342;-1.290;2023-04-15T10:14:35;100565.30;;;15.70;77.00
28027;BME280;15344;52.342;-1.290;2023-04-15T10:17:00;100568.64;;;16.34;73.88
28027;BME280;15344;52.342;-1.290;2023-04-15T10:19:24;100571.58;;;15.02;77.95
28027;BME280;15344;52.342;-1.290;2023-04-15T10:21:50;100569.76;;;16.67;76.25
28027;BME280;15344;52.342;-1.290;2023-04-15T10:24:14;100572.16;;;16.80;71.64
28027;BME280;15344;52.342;-1.290;2023-04-15T10:26:40;100575.85;;;16.92;72.39
28027;BME280;15344;52.342;-1.290;2023-04-15T10:29:05;100580.29;;;15.43;74.27
28027;BME280;15344;52.342;-1.290;2023-04-15T10:31:30;100581.12;;;15.00;75.74
28027;BME280;15344;52.342;-1.290;2023-04-15T10:33:57;100578.51;;;16.53;73.25
28027;BME280;15344;52.342;-1.290;2023-04-15T10:36:21;100590.35;;;15.40;75.43
28027;BME280;15344;52.342;-1.290;2023-04-15T10:38:47;100591.62;;;16.31;67.93
28027;BME280;15344;52.342;-1.290;2023-04-15T10:41:14;100588.87;;;16.64;67.53
28027;BME280;15344;52.342;-1.290;2023-04-15T10:43:39;100588.07;;;16.25;68.99
28027;BME280;15344;52.342;-1.290;2023-04-15T10:46:05;100591.06;;;17.32;69.30
28027;BME280;15344;52.342;-1.290;2023-04-15T10:48:30;100590.51;;;16.13;70.19
28027;BME280;15344;52.342;-1.290;2023-04-15T10:50:56;100596.91;;;16.57;70.37
28027;BME280;15344;52.342;-1.290;2023-04-15T10:53:26;100608.60;;;14.94;72.33
28027;BME280;15344;52.342;-1.290;2023-04-15T10:55:45;100609.67;;;15.38;71.59
28027;BME280;15344;52.342;-1.290;2023-04-15T10:58:10;100606.46;;;16.24;69.44
28027;BME280;15344;52.342;-1.290;2023-04-15T11:00:36;100619.43;;;15.28;70.47
28027;BME280;15344;52.342;-1.290;2023-04-15T11:03:06;100618.62;;;15.62;68.60
28027;BME280;15344;52.342;-1.290;2023-04-15T11:07:54;100626.42;;;16.31;68.99
28027;BME280;15344;52.342;-1.290;2023-04-15T11:12:45;100632.68;;;16.48;69.09
28027;BME280;15344;52.342;-1.290;2023-04-15T11:17:35;100635.02;;;16.34;69.65
28027;BME280;15344;52.342;-1.290;2023-04-15T11:20:00;100643.20;;;15.09;74.71
28027;BME280;15344;52.342;-1.290;2023-04-15T11:22:26;100645.91;;;16.32;67.54
28027;BME280;15344;52.342;-1.290;2023-04-15T11:24:51;100648.27;;;15.77;68.49
28027;BME280;15344;52.342;-1.290;2023-04-15T11:27:21;100654.47;;;15.10;73.08
28027;BME280;15344;52.342;-1.290;2023-04-15T11:29:42;100655.99;;;15.91;69.75
28027;BME280;15344;52.342;-1.290;2023-04-15T11:32:09;100660.50;;;15.56;70.68
28027;BME280;15344;52.342;-1.290;2023-04-15T11:34:34;100663.33;;;15.09;75.64
28027;BME280;15344;52.342;-1.290;2023-04-15T11:36:59;100664.66;;;16.69;71.85
28027;BME280;15344;52.342;-1.290;2023-04-15T11:39:25;100664.43;;;15.03;73.45
28027;BME280;15344;52.342;-1.290;2023-04-15T11:41:50;100671.08;;;15.74;72.39
28027;BME280;15344;52.342;-1.290;2023-04-15T11:44:16;100672.38;;;16.18;68.42
28027;BME280;15344;52.342;-1.290;2023-04-15T11:46:40;100677.75;;;15.09;67.79
28027;BME280;15344;52.342;-1.290;2023-04-15T11:49:05;100676.44;;;16.54;68.87
28027;BME280;15344;52.342;-1.290;2023-04-15T11:51:32;100674.67;;;17.37;66.19
28027;BME280;15344;52.342;-1.290;2023-04-15T11:53:57;100680.69;;;15.24;69.00
28027;BME280;15344;52.342;-1.290;2023-04-15T11:56:24;100680.78;;;16.67;66.24
28027;BME280;15344;52.342;-1.290;2023-04-15T11:58:50;100679.94;;;17.21;63.64
28027;BME280;15344;52.342;-1.290;2023-04-15T12:01:13;100689.99;;;16.18;66.26
28027;BME280;15344;52.342;-1.290;2023-04-15T12:03:40;100691.28;;;15.88;66.03
28027;BME280;15344;52.342;-1.290;2023-04-15T12:06:07;100691.39;;;16.45;65.66
28027;BME280;15344;52.342;-1.290;2023-04-15T12:10:58;100694.02;;;16.36;64.38
28027;BME280;15344;52.342;-1.290;2023-04-15T12:13:19;100697.67;;;16.38;64.12
28027;BME280;15344;52.342;-1.290;2023-04-15T12:15:44;100699.16;;;15.62;65.11
28027;BME280;15344;52.342;-1.290;2023-04-15T12:18:16;100700.98;;;15.83;65.83
28027;BME280;15344;52.342;-1.290;2023-04-15T12:20:42;100701.63;;;16.31;64.58
28027;BME280;15344;52.342;-1.290;2023-04-15T12:23:05;100698.09;;;16.72;65.60
28027;BME280;15344;52.342;-1.290;2023-04-15T12:25:33;100697.45;;;15.93;65.07
28027;BME280;15344;52.342;-1.290;2023-04-15T12:27:51;100703.34;;;15.81;68.75
28027;BME280;15344;52.342;-1.290;2023-04-15T12:30:17;100704.03;;;15.98;65.66
28027;BME280;15344;52.342;-1.290;2023-04-15T12:32:45;100704.94;;;16.24;64.46
28027;BME280;15344;52.342;-1.290;2023-04-15T12:35:08;100703.12;;;15.35;68.06
28027;BME280;15344;52.342;-1.290;2023-04-15T12:37:33;100705.06;;;16.08;68.43
28027;BME280;15344;52.342;-1.290;2023-04-15T12:39:58;100707.39;;;16.02;66.92
28027;BME280;15344;52.342;-1.290;2023-04-15T12:42:24;100704.64;;;16.86;64.70
28027;BME280;15344;52.342;-1.290;2023-04-15T12:44:49;100716.26;;;16.67;62.52
28027;BME280;15344;52.342;-1.290;2023-04-15T12:47:14;100721.55;;;16.63;64.54
28027;BME280;15344;52.342;-1.290;2023-04-15T12:49:40;100718.98;;;16.51;60.87